sensor_id;sensor_type;location;lat;lon;timestamp;P1;durP1;ratioP1;P2;durP2;ratioP2
8654;SDS011;13500;52.514;13.462;2022-08-21T00:01:55;5.67;;;4.27;;
8654;SDS011;13500;52.514;13.462;2022-08-21T00:04:23;5.53;;;4.30;;
8654;SDS011;13500;52.514;13.462;2022-08-21T00:06:55;5.50;;;3.60;;
8654;SDS011;13500;52.514;13.462;2022-08-21T00:09:23;4.87;;;4.37;;
8654;SDS011;13500;52.514;13.462;2022-08-21T00:11:51;5.97;;;4.53;;
8654;SDS011;13500;52.514;13.462;2022-08-21T00:14:20;4.50;;;4.00;;
8654;SDS011;13500;52.514;13.462;2022-08-21T00:16:48;4.53;;;3.97;;
8654;SDS011;13500;52.514;13.462;2022-08-21T00:19:17;4.80;;;4.00;;
8654;SDS011;13500;52.514;13.462;2022-08-21T00:21:46;4.20;;;3.80;;
8654;SDS011;13500;52.514;13.462;2022-08-21T00:24:15;4.83;;;4.33;;
8654;SDS011;13500;52.514;13.462;2022-08-21T00:26:43;5.43;;;4.27;;
8654;SDS011;13500;52.514;13.462;2022-08-21T00:29:12;5.57;;;4.50;;
8654;SDS011;13500;52.514;13.462;2022-08-21T00:31:41;4.83;;;4.33;;
8654;SDS011;13500;52.514;13.462;2022-08-21T00:34:11;4.47;;;4.07;;
8654;SDS011;13500;52.514;13.462;2022-08-21T00:36:41;4.50;;;4.10;;
8654;SDS011;13500;52.514;13.462;2022-08-21T00:39:09;4.70;;;4.30;;
8654;SDS011;13500;52.514;13.462;2022-08-21T00:41:37;4.17;;;3.83;;
8654;SDS011;13500;52.514;13.462;2022-08-21T00:44:06;4.80;;;4.30;;
8654;SDS011;13500;52.514;13.462;2022-08-21T00:46:39;4.90;;;4.50;;
8654;SDS011;13500;52.514;13.462;2022-08-21T00:49:09;4.60;;;4.00;;
8654;SDS011;13500;52.514;13.462;2022-08-21T00:51:42;6.10;;;4.00;;
8654;SDS011;13500;52.514;13.462;2022-08-21T00:54:14;4.30;;;3.90;;
8654;SDS011;13500;52.514;13.462;2022-08-21T00:56:45;4.77;;;3.70;;
8654;SDS011;13500;52.514;13.462;2022-08-21T00:59:16;5.80;;;4.10;;
8654;SDS011;13500;52.514;13.462;2022-08-21T01:01:46;5.77;;;3.93;;
8654;SDS011;13500;52.514;13.462;2022-08-21T01:04:16;4.50;;;4.10;;
8654;SDS011;13500;52.514;13.462;2022-08-21T01:06:46;6.93;;;3.60;;
8654;SDS011;13500;52.514;13.462;2022-08-21T01:09:14;4.53;;;4.10;;
8654;SDS011;13500;52.514;13.462;2022-08-21T01:11:42;4.50;;;4.10;;
8654;SDS011;13500;52.514;13.462;2022-08-21T01:14:11;4.67;;;4.03;;
8654;SDS011;13500;52.514;13.462;2022-08-21T01:16:40;4.63;;;4.10;;
8654;SDS011;13500;52.514;13.462;2022-08-21T01:19:14;4.50;;;3.63;;
8654;SDS011;13500;52.514;13.462;2022-08-21T01:21:45;4.73;;;4.27;;
8654;SDS011;13500;52.514;13.462;2022-08-21T01:24:14;4.37;;;3.97;;
8654;SDS011;13500;52.514;13.462;2022-08-21T01:26:42;4.87;;;3.90;;
8654;SDS011;13500;52.514;13.462;2022-08-21T01:29:13;4.93;;;3.87;;
8654;SDS011;13500;52.514;13.462;2022-08-21T01:31:47;4.13;;;3.73;;
8654;SDS011;13500;52.514;13.462;2022-08-21T01:34:15;3.93;;;3.13;;
8654;SDS011;13500;52.514;13.462;2022-08-21T01:36:43;4.50;;;4.03;;
8654;SDS011;13500;52.514;13.462;2022-08-21T01:39:14;3.97;;;3.30;;
8654;SDS011;13500;52.514;13.462;2022-08-21T01:41:44;3.30;;;2.97;;
8654;SDS011;13500;52.514;13.462;2022-08-21T01:44:12;3.67;;;3.30;;
8654;SDS011;13500;52.514;13.462;2022-08-21T01:46:40;5.10;;;3.60;;
8654;SDS011;13500;52.514;13.462;2022-08-21T01:49:08;5.33;;;3.30;;
8654;SDS011;13500;52.514;13.462;2022-08-21T01:51:36;4.33;;;3.30;;
8654;SDS011;13500;52.514;13.462;2022-08-21T01:54:05;3.67;;;3.30;;
8654;SDS011;13500;52.514;13.462;2022-08-21T01:56:35;2.83;;;2.63;;
8654;SDS011;13500;52.514;13.462;2022-08-21T01:59:05;3.97;;;3.57;;
8654;SDS011;13500;52.514;13.462;2022-08-21T02:01:33;4.10;;;3.70;;
8654;SDS011;13500;52.514;13.462;2022-08-21T02:04:02;4.17;;;3.77;;
8654;SDS011;13500;52.514;13.462;2022-08-21T02:06:30;5.13;;;3.33;;
8654;SDS011;13500;52.514;13.462;2022-08-21T02:08:58;3.90;;;3.53;;
8654;SDS011;13500;52.514;13.462;2022-08-21T02:11:28;3.47;;;3.17;;
8654;SDS011;13500;52.514;13.462;2022-08-21T02:13:56;3.40;;;3.10;;
8654;SDS011;13500;52.514;13.462;2022-08-21T02:16:24;6.83;;;3.87;;
8654;SDS011;13500;52.514;13.462;2022-08-21T02:18:52;5.60;;;3.47;;
8654;SDS011;13500;52.514;13.462;2022-08-21T02:21:20;4.43;;;3.43;;
8654;SDS011;13500;52.514;13.462;2022-08-21T02:23:48;3.77;;;3.10;;
8654;SDS011;13500;52.514;13.462;2022-08-21T02:26:16;3.77;;;3.00;;
8654;SDS011;13500;52.514;13.462;2022-08-21T02:28:46;3.53;;;3.20;;
8654;SDS011;13500;52.514;13.462;2022-08-21T02:31:14;3.40;;;3.10;;
8654;SDS011;13500;52.514;13.462;2022-08-21T02:33:42;5.70;;;3.43;;
8654;SDS011;13500;52.514;13.462;2022-08-21T02:36:11;3.57;;;3.27;;
8654;SDS011;13500;52.514;13.462;2022-08-21T02:38:41;3.53;;;3.17;;
8654;SDS011;13500;52.514;13.462;2022-08-21T02:41:10;5.10;;;2.83;;
8654;SDS011;13500;52.514;13.462;2022-08-21T02:43:41;3.50;;;3.20;;
8654;SDS011;13500;52.514;13.462;2022-08-21T02:46:13;3.30;;;3.03;;
8654;SDS011;13500;52.514;13.462;2022-08-21T02:48:43;3.20;;;2.87;;
8654;SDS011;13500;52.514;13.462;2022-08-21T02:51:13;3.10;;;2.80;;
8654;SDS011;13500;52.514;13.462;2022-08-21T02:53:45;3.40;;;2.80;;
8654;SDS011;13500;52.514;13.462;2022-08-21T02:56:15;3.20;;;2.90;;
8654;SDS011;13500;52.514;13.462;2022-08-21T02:58:46;3.37;;;2.93;;
8654;SDS011;13500;52.514;13.462;2022-08-21T03:01:18;5.30;;;2.60;;
8654;SDS011;13500;52.514;13.462;2022-08-21T03:03:47;3.13;;;2.70;;
8654;SDS011;13500;52.514;13.462;2022-08-21T03:06:17;3.97;;;3.07;;
8654;SDS011;13500;52.514;13.462;2022-08-21T03:08:47;3.07;;;2.60;;
8654;SDS011;13500;52.514;13.462;2022-08-21T03:11:15;3.63;;;2.83;;
8654;SDS011;13500;52.514;13.462;2022-08-21T03:13:43;4.93;;;2.70;;
8654;SDS011;13500;52.514;13.462;2022-08-21T03:16:11;4.43;;;2.80;;
8654;SDS011;13500;52.514;13.462;2022-08-21T03:18:41;3.27;;;2.40;;
8654;SDS011;13500;52.514;13.462;2022-08-21T03:21:09;2.77;;;2.23;;
8654;SDS011;13500;52.514;13.462;2022-08-21T03:23:39;4.33;;;2.53;;
8654;SDS011;13500;52.514;13.462;2022-08-21T03:26:09;4.30;;;2.70;;
8654;SDS011;13500;52.514;13.462;2022-08-21T03:28:38;6.47;;;2.80;;
8654;SDS011;13500;52.514;13.462;2022-08-21T03:31:06;3.80;;;2.70;;
8654;SDS011;13500;52.514;13.462;2022-08-21T03:33:34;2.90;;;2.43;;
8654;SDS011;13500;52.514;13.462;2022-08-21T03:36:05;2.70;;;2.50;;
8654;SDS011;13500;52.514;13.462;2022-08-21T03:38:35;4.97;;;2.50;;
8654;SDS011;13500;52.514;13.462;2022-08-21T03:41:04;2.50;;;2.10;;
8654;SDS011;13500;52.514;13.462;2022-08-21T03:43:34;4.07;;;2.30;;
8654;SDS011;13500;52.514;13.462;2022-08-21T03:46:04;3.87;;;2.33;;
8654;SDS011;13500;52.514;13.462;2022-08-21T03:48:33;4.07;;;2.23;;
8654;SDS011;13500;52.514;13.462;2022-08-21T03:51:04;5.73;;;2.80;;
8654;SDS011;13500;52.514;13.462;2022-08-21T03:53:34;3.30;;;2.37;;
8654;SDS011;13500;52.514;13.462;2022-08-21T03:56:03;3.47;;;2.60;;
8654;SDS011;13500;52.514;13.462;2022-08-21T03:58:31;2.83;;;2.30;;
8654;SDS011;13500;52.514;13.462;2022-08-21T04:01:00;4.37;;;2.73;;
8654;SDS011;13500;52.514;13.462;2022-08-21T04:03:30;3.07;;;2.40;;
8654;SDS011;13500;52.514;13.462;2022-08-21T04:05:59;4.13;;;2.20;;
8654;SDS011;13500;52.514;13.462;2022-08-21T04:08:29;2.50;;;2.30;;
8654;SDS011;13500;52.514;13.462;2022-08-21T04:10:57;3.17;;;2.57;;
8654;SDS011;13500;52.514;13.462;2022-08-21T04:13:26;2.93;;;2.50;;
8654;SDS011;13500;52.514;13.462;2022-08-21T04:15:55;4.20;;;2.40;;
8654;SDS011;13500;52.514;13.462;2022-08-21T04:18:24;2.20;;;2.00;;
8654;SDS011;13500;52.514;13.462;2022-08-21T04:20:52;2.70;;;2.23;;
8654;SDS011;13500;52.514;13.462;2022-08-21T04:23:23;3.37;;;2.63;;
8654;SDS011;13500;52.514;13.462;2022-08-21T04:25:53;3.77;;;2.23;;
8654;SDS011;13500;52.514;13.462;2022-08-21T04:28:23;2.43;;;2.10;;
8654;SDS011;13500;52.514;13.462;2022-08-21T04:30:55;3.97;;;2.90;;
8654;SDS011;13500;52.514;13.462;2022-08-21T04:33:24;4.07;;;2.60;;
8654;SDS011;13500;52.514;13.462;2022-08-21T04:35:52;3.20;;;2.07;;
8654;SDS011;13500;52.514;13.462;2022-08-21T04:38:20;2.90;;;2.07;;
8654;SDS011;13500;52.514;13.462;2022-08-21T04:40:49;2.80;;;2.23;;
8654;SDS011;13500;52.514;13.462;2022-08-21T04:43:19;2.10;;;1.90;;
8654;SDS011;13500;52.514;13.462;2022-08-21T04:45:50;2.33;;;2.00;;
8654;SDS011;13500;52.514;13.462;2022-08-21T04:48:20;5.87;;;2.40;;
8654;SDS011;13500;52.514;13.462;2022-08-21T04:50:51;3.63;;;1.80;;
8654;SDS011;13500;52.514;13.462;2022-08-21T04:53:24;3.93;;;1.90;;
8654;SDS011;13500;52.514;13.462;2022-08-21T04:55:57;5.47;;;2.53;;
8654;SDS011;13500;52.514;13.462;2022-08-21T04:58:33;3.67;;;1.90;;
8654;SDS011;13500;52.514;13.462;2022-08-21T05:01:02;3.77;;;1.97;;
8654;SDS011;13500;52.514;13.462;2022-08-21T05:03:33;2.13;;;1.80;;
8654;SDS011;13500;52.514;13.462;2022-08-21T05:06:04;4.67;;;2.20;;
8654;SDS011;13500;52.514;13.462;2022-08-21T05:08:37;3.43;;;1.90;;
8654;SDS011;13500;52.514;13.462;2022-08-21T05:11:06;3.77;;;2.10;;
8654;SDS011;13500;52.514;13.462;2022-08-21T05:13:36;3.17;;;1.77;;
8654;SDS011;13500;52.514;13.462;2022-08-21T05:16:05;4.17;;;2.10;;
8654;SDS011;13500;52.514;13.462;2022-08-21T05:18:33;2.10;;;1.70;;
8654;SDS011;13500;52.514;13.462;2022-08-21T05:21:01;3.97;;;2.00;;
8654;SDS011;13500;52.514;13.462;2022-08-21T05:23:30;2.37;;;1.57;;
8654;SDS011;13500;52.514;13.462;2022-08-21T05:25:58;3.00;;;2.10;;
8654;SDS011;13500;52.514;13.462;2022-08-21T05:28:27;2.30;;;1.60;;
8654;SDS011;13500;52.514;13.462;2022-08-21T05:30:56;3.90;;;2.00;;
8654;SDS011;13500;52.514;13.462;2022-08-21T05:33:25;3.23;;;1.90;;
8654;SDS011;13500;52.514;13.462;2022-08-21T05:35:53;3.87;;;1.80;;
8654;SDS011;13500;52.514;13.462;2022-08-21T05:38:23;4.73;;;2.00;;
8654;SDS011;13500;52.514;13.462;2022-08-21T05:40:53;3.43;;;1.90;;
8654;SDS011;13500;52.514;13.462;2022-08-21T05:43:22;2.40;;;1.60;;
8654;SDS011;13500;52.514;13.462;2022-08-21T05:45:50;2.33;;;1.97;;
8654;SDS011;13500;52.514;13.462;2022-08-21T05:48:21;4.07;;;1.90;;
8654;SDS011;13500;52.514;13.462;2022-08-21T05:50:51;6.27;;;1.80;;
8654;SDS011;13500;52.514;13.462;2022-08-21T05:53:20;4.20;;;2.03;;
8654;SDS011;13500;52.514;13.462;2022-08-21T05:55:49;3.73;;;1.67;;
8654;SDS011;13500;52.514;13.462;2022-08-21T05:58:19;3.30;;;1.83;;
8654;SDS011;13500;52.514;13.462;2022-08-21T06:00:49;4.03;;;1.70;;
8654;SDS011;13500;52.514;13.462;2022-08-21T06:03:21;4.03;;;1.87;;
8654;SDS011;13500;52.514;13.462;2022-08-21T06:05:50;2.80;;;1.50;;
8654;SDS011;13500;52.514;13.462;2022-08-21T06:08:19;2.07;;;1.80;;
8654;SDS011;13500;52.514;13.462;2022-08-21T06:10:49;2.93;;;1.63;;
8654;SDS011;13500;52.514;13.462;2022-08-21T06:13:19;3.40;;;1.63;;
8654;SDS011;13500;52.514;13.462;2022-08-21T06:15:48;3.60;;;1.60;;
8654;SDS011;13500;52.514;13.462;2022-08-21T06:18:17;5.90;;;2.07;;
8654;SDS011;13500;52.514;13.462;2022-08-21T06:20:46;2.37;;;1.47;;
8654;SDS011;13500;52.514;13.462;2022-08-21T06:23:14;4.80;;;1.77;;
8654;SDS011;13500;52.514;13.462;2022-08-21T06:25:42;4.40;;;1.87;;
8654;SDS011;13500;52.514;13.462;2022-08-21T06:28:10;3.40;;;1.60;;
8654;SDS011;13500;52.514;13.462;2022-08-21T06:30:39;4.20;;;1.63;;
8654;SDS011;13500;52.514;13.462;2022-08-21T06:33:07;2.53;;;1.60;;
8654;SDS011;13500;52.514;13.462;2022-08-21T06:35:35;1.73;;;1.63;;
8654;SDS011;13500;52.514;13.462;2022-08-21T06:38:08;2.57;;;1.63;;
8654;SDS011;13500;52.514;13.462;2022-08-21T06:40:37;2.23;;;1.57;;
8654;SDS011;13500;52.514;13.462;2022-08-21T06:43:13;3.20;;;1.37;;
8654;SDS011;13500;52.514;13.462;2022-08-21T06:45:43;3.57;;;1.70;;
8654;SDS011;13500;52.514;13.462;2022-08-21T06:48:12;4.23;;;1.63;;
8654;SDS011;13500;52.514;13.462;2022-08-21T06:50:45;2.50;;;1.60;;
8654;SDS011;13500;52.514;13.462;2022-08-21T06:53:15;5.07;;;1.77;;
8654;SDS011;13500;52.514;13.462;2022-08-21T06:55:45;5.00;;;2.10;;
8654;SDS011;13500;52.514;13.462;2022-08-21T06:58:14;2.93;;;1.50;;
8654;SDS011;13500;52.514;13.462;2022-08-21T07:00:43;5.53;;;1.80;;
8654;SDS011;13500;52.514;13.462;2022-08-21T07:03:16;3.50;;;1.63;;
8654;SDS011;13500;52.514;13.462;2022-08-21T07:05:48;2.13;;;1.40;;
8654;SDS011;13500;52.514;13.462;2022-08-21T07:08:19;2.43;;;1.40;;
8654;SDS011;13500;52.514;13.462;2022-08-21T07:10:47;2.13;;;1.40;;
8654;SDS011;13500;52.514;13.462;2022-08-21T07:13:16;6.03;;;1.70;;
8654;SDS011;13500;52.514;13.462;2022-08-21T07:15:44;3.37;;;1.70;;
8654;SDS011;13500;52.514;13.462;2022-08-21T07:18:12;3.07;;;1.73;;
8654;SDS011;13500;52.514;13.462;2022-08-21T07:20:41;2.93;;;1.70;;
8654;SDS011;13500;52.514;13.462;2022-08-21T07:23:10;2.63;;;1.33;;
8654;SDS011;13500;52.514;13.462;2022-08-21T07:25:44;3.90;;;1.73;;
8654;SDS011;13500;52.514;13.462;2022-08-21T07:28:12;4.10;;;1.77;;
8654;SDS011;13500;52.514;13.462;2022-08-21T07:30:40;6.00;;;1.97;;
8654;SDS011;13500;52.514;13.462;2022-08-21T07:33:09;3.50;;;1.50;;
8654;SDS011;13500;52.514;13.462;2022-08-21T07:35:37;3.90;;;1.70;;
8654;SDS011;13500;52.514;13.462;2022-08-21T07:38:05;1.60;;;1.30;;
8654;SDS011;13500;52.514;13.462;2022-08-21T07:40:33;3.97;;;1.70;;
8654;SDS011;13500;52.514;13.462;2022-08-21T07:43:02;3.20;;;1.40;;
8654;SDS011;13500;52.514;13.462;2022-08-21T07:45:30;3.30;;;1.53;;
8654;SDS011;13500;52.514;13.462;2022-08-21T07:47:59;2.80;;;1.10;;
8654;SDS011;13500;52.514;13.462;2022-08-21T07:50:27;1.67;;;1.27;;
8654;SDS011;13500;52.514;13.462;2022-08-21T07:52:55;3.20;;;1.40;;
8654;SDS011;13500;52.514;13.462;2022-08-21T07:55:23;1.87;;;1.30;;
8654;SDS011;13500;52.514;13.462;2022-08-21T07:57:52;1.27;;;1.10;;
8654;SDS011;13500;52.514;13.462;2022-08-21T08:00:23;2.27;;;1.40;;
8654;SDS011;13500;52.514;13.462;2022-08-21T08:02:52;3.50;;;1.13;;
8654;SDS011;13500;52.514;13.462;2022-08-21T08:05:22;1.80;;;1.10;;
8654;SDS011;13500;52.514;13.462;2022-08-21T08:07:52;2.10;;;1.10;;
8654;SDS011;13500;52.514;13.462;2022-08-21T08:10:20;2.33;;;1.27;;
8654;SDS011;13500;52.514;13.462;2022-08-21T08:12:49;2.57;;;1.77;;
8654;SDS011;13500;52.514;13.462;2022-08-21T08:15:19;2.43;;;1.53;;
8654;SDS011;13500;52.514;13.462;2022-08-21T08:17:51;2.73;;;1.50;;
8654;SDS011;13500;52.514;13.462;2022-08-21T08:20:21;2.17;;;1.40;;
8654;SDS011;13500;52.514;13.462;2022-08-21T08:22:49;2.50;;;1.70;;
8654;SDS011;13500;52.514;13.462;2022-08-21T08:25:18;6.80;;;2.70;;
8654;SDS011;13500;52.514;13.462;2022-08-21T08:27:47;4.53;;;2.83;;
8654;SDS011;13500;52.514;13.462;2022-08-21T08:30:16;3.60;;;2.77;;
8654;SDS011;13500;52.514;13.462;2022-08-21T08:32:47;6.13;;;2.93;;
8654;SDS011;13500;52.514;13.462;2022-08-21T08:35:15;3.00;;;2.40;;
8654;SDS011;13500;52.514;13.462;2022-08-21T08:37:49;2.07;;;1.80;;
8654;SDS011;13500;52.514;13.462;2022-08-21T08:40:20;3.07;;;1.87;;
8654;SDS011;13500;52.514;13.462;2022-08-21T08:42:56;3.20;;;2.07;;
8654;SDS011;13500;52.514;13.462;2022-08-21T08:45:24;1.90;;;1.57;;
8654;SDS011;13500;52.514;13.462;2022-08-21T08:47:55;2.40;;;1.80;;
8654;SDS011;13500;52.514;13.462;2022-08-21T08:50:33;2.33;;;1.53;;
8654;SDS011;13500;52.514;13.462;2022-08-21T08:53:08;2.87;;;1.70;;
8654;SDS011;13500;52.514;13.462;2022-08-21T08:55:42;2.93;;;1.60;;
8654;SDS011;13500;52.514;13.462;2022-08-21T08:58:12;2.13;;;1.57;;
8654;SDS011;13500;52.514;13.462;2022-08-21T09:00:47;1.73;;;1.50;;
8654;SDS011;13500;52.514;13.462;2022-08-21T09:03:20;1.93;;;1.50;;
8654;SDS011;13500;52.514;13.462;2022-08-21T09:05:50;2.33;;;1.50;;
8654;SDS011;13500;52.514;13.462;2022-08-21T09:08:28;3.43;;;1.77;;
8654;SDS011;13500;52.514;13.462;2022-08-21T09:11:09;4.60;;;1.80;;
8654;SDS011;13500;52.514;13.462;2022-08-21T09:13:46;3.37;;;1.77;;
8654;SDS011;13500;52.514;13.462;2022-08-21T09:16:21;2.23;;;1.30;;
8654;SDS011;13500;52.514;13.462;2022-08-21T09:19:02;1.57;;;1.37;;
8654;SDS011;13500;52.514;13.462;2022-08-21T09:21:35;6.30;;;2.33;;
8654;SDS011;13500;52.514;13.462;2022-08-21T09:24:13;1.97;;;1.43;;
8654;SDS011;13500;52.514;13.462;2022-08-21T09:26:57;2.97;;;1.87;;
8654;SDS011;13500;52.514;13.462;2022-08-21T09:29:30;2.07;;;1.47;;
8654;SDS011;13500;52.514;13.462;2022-08-21T09:32:02;2.73;;;1.40;;
8654;SDS011;13500;52.514;13.462;2022-08-21T09:34:36;3.23;;;1.67;;
8654;SDS011;13500;52.514;13.462;2022-08-21T09:37:04;2.77;;;1.50;;
8654;SDS011;13500;52.514;13.462;2022-08-21T09:39:45;2.27;;;1.40;;
8654;SDS011;13500;52.514;13.462;2022-08-21T09:42:21;2.27;;;1.43;;
8654;SDS011;13500;52.514;13.462;2022-08-21T09:45:11;3.43;;;1.63;;
8654;SDS011;13500;52.514;13.462;2022-08-21T09:47:42;1.90;;;1.40;;
8654;SDS011;13500;52.514;13.462;2022-08-21T09:50:14;2.40;;;1.40;;
8654;SDS011;13500;52.514;13.462;2022-08-21T09:52:45;1.30;;;1.20;;
8654;SDS011;13500;52.514;13.462;2022-08-21T09:55:23;3.57;;;1.50;;
8654;SDS011;13500;52.514;13.462;2022-08-21T09:58:15;2.90;;;1.50;;
8654;SDS011;13500;52.514;13.462;2022-08-21T10:00:44;6.07;;;1.87;;
8654;SDS011;13500;52.514;13.462;2022-08-21T10:03:15;2.30;;;1.47;;
8654;SDS011;13500;52.514;13.462;2022-08-21T10:05:51;2.53;;;1.40;;
8654;SDS011;13500;52.514;13.462;2022-08-21T10:08:22;2.13;;;1.40;;
8654;SDS011;13500;52.514;13.462;2022-08-21T10:10:54;4.07;;;1.57;;
8654;SDS011;13500;52.514;13.462;2022-08-21T10:13:27;2.13;;;1.43;;
8654;SDS011;13500;52.514;13.462;2022-08-21T10:16:06;3.70;;;1.37;;
8654;SDS011;13500;52.514;13.462;2022-08-21T10:18:45;1.67;;;1.20;;
8654;SDS011;13500;52.514;13.462;2022-08-21T10:21:22;3.90;;;1.40;;
8654;SDS011;13500;52.514;13.462;2022-08-21T10:23:57;3.53;;;1.50;;
8654;SDS011;13500;52.514;13.462;2022-08-21T10:26:34;2.43;;;1.33;;
8654;SDS011;13500;52.514;13.462;2022-08-21T10:29:14;2.90;;;1.50;;
8654;SDS011;13500;52.514;13.462;2022-08-21T10:31:52;3.10;;;1.53;;
8654;SDS011;13500;52.514;13.462;2022-08-21T10:34:31;2.70;;;1.20;;
8654;SDS011;13500;52.514;13.462;2022-08-21T10:37:14;2.70;;;1.50;;
8654;SDS011;13500;52.514;13.462;2022-08-21T10:39:53;3.43;;;1.70;;
8654;SDS011;13500;52.514;13.462;2022-08-21T10:42:33;1.40;;;1.30;;
8654;SDS011;13500;52.514;13.462;2022-08-21T10:45:08;3.07;;;1.67;;
8654;SDS011;13500;52.514;13.462;2022-08-21T10:47:44;2.93;;;1.57;;
8654;SDS011;13500;52.514;13.462;2022-08-21T10:50:25;3.27;;;1.83;;
8654;SDS011;13500;52.514;13.462;2022-08-21T10:53:05;4.00;;;1.70;;
8654;SDS011;13500;52.514;13.462;2022-08-21T10:55:44;3.37;;;1.50;;
8654;SDS011;13500;52.514;13.462;2022-08-21T10:58:21;1.73;;;1.37;;
8654;SDS011;13500;52.514;13.462;2022-08-21T11:00:55;2.33;;;1.53;;
8654;SDS011;13500;52.514;13.462;2022-08-21T11:03:29;1.30;;;1.20;;
8654;SDS011;13500;52.514;13.462;2022-08-21T11:06:02;2.40;;;1.77;;
8654;SDS011;13500;52.514;13.462;2022-08-21T11:08:37;2.80;;;1.70;;
8654;SDS011;13500;52.514;13.462;2022-08-21T11:11:10;2.83;;;1.73;;
8654;SDS011;13500;52.514;13.462;2022-08-21T11:13:48;4.07;;;1.60;;
8654;SDS011;13500;52.514;13.462;2022-08-21T11:16:21;8.47;;;7.23;;
8654;SDS011;13500;52.514;13.462;2022-08-21T11:18:58;7.30;;;5.53;;
8654;SDS011;13500;52.514;13.462;2022-08-21T11:21:34;4.70;;;3.90;;
8654;SDS011;13500;52.514;13.462;2022-08-21T11:24:12;2.90;;;2.20;;
8654;SDS011;13500;52.514;13.462;2022-08-21T11:26:53;2.93;;;2.10;;
8654;SDS011;13500;52.514;13.462;2022-08-21T11:29:32;3.30;;;2.10;;
8654;SDS011;13500;52.514;13.462;2022-08-21T11:32:20;2.37;;;1.80;;
8654;SDS011;13500;52.514;13.462;2022-08-21T11:35:07;2.70;;;1.80;;
8654;SDS011;13500;52.514;13.462;2022-08-21T11:37:44;3.43;;;1.80;;
8654;SDS011;13500;52.514;13.462;2022-08-21T11:40:24;2.53;;;1.50;;
8654;SDS011;13500;52.514;13.462;2022-08-21T11:43:02;1.60;;;1.50;;
8654;SDS011;13500;52.514;13.462;2022-08-21T11:45:39;1.47;;;1.37;;
8654;SDS011;13500;52.514;13.462;2022-08-21T11:48:13;1.50;;;1.17;;
8654;SDS011;13500;52.514;13.462;2022-08-21T11:50:51;1.27;;;1.10;;
8654;SDS011;13500;52.514;13.462;2022-08-21T11:53:21;4.30;;;1.50;;
8654;SDS011;13500;52.514;13.462;2022-08-21T11:55:56;1.77;;;1.30;;
8654;SDS011;13500;52.514;13.462;2022-08-21T11:58:28;1.90;;;1.17;;
8654;SDS011;13500;52.514;13.462;2022-08-21T12:01:01;1.50;;;1.20;;
8654;SDS011;13500;52.514;13.462;2022-08-21T12:03:35;1.57;;;1.37;;
8654;SDS011;13500;52.514;13.462;2022-08-21T12:06:09;1.93;;;1.17;;
8654;SDS011;13500;52.514;13.462;2022-08-21T12:08:56;1.37;;;1.20;;
8654;SDS011;13500;52.514;13.462;2022-08-21T12:11:27;1.20;;;1.00;;
8654;SDS011;13500;52.514;13.462;2022-08-21T12:13:58;2.13;;;1.60;;
8654;SDS011;13500;52.514;13.462;2022-08-21T12:16:28;2.07;;;1.47;;
8654;SDS011;13500;52.514;13.462;2022-08-21T12:19:03;1.33;;;1.17;;
8654;SDS011;13500;52.514;13.462;2022-08-21T12:21:32;0.97;;;0.87;;
8654;SDS011;13500;52.514;13.462;2022-08-21T12:24:03;2.67;;;1.70;;
8654;SDS011;13500;52.514;13.462;2022-08-21T12:26:49;1.20;;;1.10;;
8654;SDS011;13500;52.514;13.462;2022-08-21T12:29:22;1.83;;;1.30;;
8654;SDS011;13500;52.514;13.462;2022-08-21T12:31:54;1.97;;;1.20;;
8654;SDS011;13500;52.514;13.462;2022-08-21T12:34:31;1.20;;;1.10;;
8654;SDS011;13500;52.514;13.462;2022-08-21T12:37:04;1.40;;;1.03;;
8654;SDS011;13500;52.514;13.462;2022-08-21T12:39:43;1.63;;;1.20;;
8654;SDS011;13500;52.514;13.462;2022-08-21T12:42:16;1.10;;;1.00;;
8654;SDS011;13500;52.514;13.462;2022-08-21T12:44:48;1.10;;;1.00;;
8654;SDS011;13500;52.514;13.462;2022-08-21T12:47:24;4.00;;;3.70;;
8654;SDS011;13500;52.514;13.462;2022-08-21T12:49:59;3.43;;;1.93;;
8654;SDS011;13500;52.514;13.462;2022-08-21T12:52:32;7.70;;;4.50;;
8654;SDS011;13500;52.514;13.462;2022-08-21T12:55:06;2.13;;;1.70;;
8654;SDS011;13500;52.514;13.462;2022-08-21T12:57:36;1.20;;;1.10;;
8654;SDS011;13500;52.514;13.462;2022-08-21T13:00:08;2.00;;;1.33;;
8654;SDS011;13500;52.514;13.462;2022-08-21T13:02:41;1.70;;;1.10;;
8654;SDS011;13500;52.514;13.462;2022-08-21T13:05:13;1.43;;;1.00;;
8654;SDS011;13500;52.514;13.462;2022-08-21T13:07:45;1.20;;;1.10;;
8654;SDS011;13500;52.514;13.462;2022-08-21T13:10:16;1.53;;;1.07;;
8654;SDS011;13500;52.514;13.462;2022-08-21T13:12:48;1.27;;;1.00;;
8654;SDS011;13500;52.514;13.462;2022-08-21T13:15:22;1.00;;;1.00;;
8654;SDS011;13500;52.514;13.462;2022-08-21T13:17:59;0.93;;;0.93;;
8654;SDS011;13500;52.514;13.462;2022-08-21T13:20:30;1.00;;;0.97;;
8654;SDS011;13500;52.514;13.462;2022-08-21T13:23:01;2.23;;;1.30;;
8654;SDS011;13500;52.514;13.462;2022-08-21T13:25:34;1.30;;;1.20;;
8654;SDS011;13500;52.514;13.462;2022-08-21T13:28:06;1.47;;;1.37;;
8654;SDS011;13500;52.514;13.462;2022-08-21T13:30:38;1.40;;;1.20;;
8654;SDS011;13500;52.514;13.462;2022-08-21T13:33:09;1.43;;;1.13;;
8654;SDS011;13500;52.514;13.462;2022-08-21T13:35:46;3.83;;;1.50;;
8654;SDS011;13500;52.514;13.462;2022-08-21T13:38:15;1.40;;;1.20;;
